Time;durP1;ratioP1;P1;durP2;ratioP2;P2;SDS_P1;SDS_P2;PMS_P1;PMS_P2;Temp;Humidity;BMP_temperature;BMP_pressure;BME280_temperature;BME280_humidity;BME280_pressure;Samples;Min_cycle;Max_cycle;Signal;HPM_P1;HPM_P2
2022/05/14 00:00:59;;;;;;;1.98;0.75;;;16.60;47.90;;;;;;2243206;55;20974;-74
2022/05/14 00:03:26;;;;;;;1.45;0.60;;;16.50;48.00;;;;;;2272067;55;21030;-78
2022/05/14 00:05:56;;;;;;;1.20;0.57;;;16.50;48.10;;;;;;2251587;56;21471;-74
2022/05/14 00:08:22;;;;;;;1.23;0.50;;;16.50;48.30;;;;;;2258240;55;20960;-74
2022/05/14 00:13:33;;;;;;;2.37;0.80;;;16.40;48.20;;;;;;2486223;55;20971;-75
2022/05/14 00:15:59;;;;;;;4.60;1.10;;;16.40;48.20;;;;;;2248004;55;21027;-75
2022/05/14 00:18:28;;;;;;;2.25;0.62;;;16.30;48.10;;;;;;2316344;55;21031;-74
2022/05/14 00:20:54;;;;;;;5.93;0.90;;;16.30;48.20;;;;;;2271871;56;20979;-74
2022/05/14 00:23:21;;;;;;;2.92;0.60;;;16.20;48.10;;;;;;2255236;55;20931;-76
2022/05/14 00:25:47;;;;;;;3.28;0.80;;;16.20;48.20;;;;;;2487191;55;21147;-74
2022/05/14 00:28:14;;;;;;;2.28;0.57;;;16.10;48.10;;;;;;2259417;56;21059;-78
2022/05/14 00:30:40;;;;;;;1.60;0.60;;;16.10;48.20;;;;;;2244508;55;20966;-74
2022/05/14 00:33:07;;;;;;;1.62;0.60;;;16.00;48.20;;;;;;2409957;55;21436;-75
2022/05/14 00:35:34;;;;;;;2.17;0.62;;;16.00;48.30;;;;;;2260903;55;20999;-78
2022/05/14 00:38:01;;;;;;;1.02;0.40;;;15.90;48.30;;;;;;2259456;55;21067;-74
2022/05/14 00:40:32;;;;;;;2.35;0.70;;;15.90;48.30;;;;;;2252121;56;21042;-74
2022/05/14 00:42:59;;;;;;;2.05;0.50;;;15.90;48.40;;;;;;2247346;55;20979;-75
2022/05/14 00:45:25;;;;;;;2.53;0.75;;;15.80;48.40;;;;;;2249322;55;20971;-74
2022/05/14 00:47:55;;;;;;;2.10;0.62;;;15.80;48.40;;;;;;2399764;55;21332;-74
2022/05/14 00:50:30;;;;;;;1.52;0.68;;;15.70;48.40;;;;;;2261299;55;20996;-73
2022/05/14 00:53:02;;;;;;;3.00;0.88;;;15.70;48.70;;;;;;2251690;55;20975;-76
2022/05/14 00:55:29;;;;;;;1.73;0.60;;;15.70;48.70;;;;;;2463619;55;20972;-74
2022/05/14 00:57:55;;;;;;;4.40;0.70;;;15.60;48.60;;;;;;2254751;55;21334;-79
2022/05/14 01:00:22;;;;;;;2.20;0.70;;;15.60;48.60;;;;;;2254494;55;21063;-74
2022/05/14 01:02:48;;;;;;;3.45;0.80;;;15.50;48.70;;;;;;2252490;55;21778;-74
2022/05/14 01:05:15;;;;;;;1.30;0.60;;;15.50;48.80;;;;;;2449665;55;21991;-74
2022/05/14 01:07:42;;;;;;;1.87;0.60;;;15.50;49.00;;;;;;2252180;56;21622;-74
2022/05/14 01:10:10;;;;;;;2.97;0.90;;;15.40;48.90;;;;;;2258357;56;21028;-74
2022/05/14 01:12:37;;;;;;;2.22;1.00;;;15.40;49.00;;;;;;2258508;55;20975;-74
2022/05/14 01:15:19;;;;;;;1.73;0.60;;;15.40;49.00;;;;;;2298413;55;20939;-74
2022/05/14 01:17:45;;;;;;;2.40;0.67;;;15.40;49.40;;;;;;2369742;55;20983;-74
2022/05/14 01:20:12;;;;;;;1.85;0.60;;;15.30;49.00;;;;;;2259386;56;20975;-74
2022/05/14 01:23:01;;;;;;;1.87;0.60;;;15.30;49.10;;;;;;2259184;56;21063;-75
2022/05/14 01:26:49;;;;;;;1.50;0.62;;;15.20;49.40;;;;;;2235212;56;21008;-74
2022/05/14 01:29:20;;;;;;;1.37;0.52;;;15.30;49.80;;;;;;2296863;55;20955;-74
2022/05/14 01:31:47;;;;;;;1.10;0.50;;;15.20;49.30;;;;;;2259022;56;20983;-75
2022/05/14 01:34:16;;;;;;;1.77;0.55;;;15.10;49.20;;;;;;2487112;55;21431;-74
2022/05/14 01:36:42;;;;;;;3.28;1.02;;;15.10;49.90;;;;;;2259292;56;20995;-74
2022/05/14 01:39:09;;;;;;;1.33;0.60;;;15.00;49.20;;;;;;2258708;56;21032;-74
2022/05/14 01:41:35;;;;;;;2.08;0.60;;;15.00;49.30;;;;;;2266448;55;20982;-74
2022/05/14 01:44:01;;;;;;;2.00;0.75;;;15.00;49.40;;;;;;2258873;56;20975;-74
2022/05/14 01:46:27;;;;;;;2.08;0.52;;;15.00;49.50;;;;;;2258884;56;21878;-74
2022/05/14 01:48:54;;;;;;;3.53;0.68;;;14.90;49.50;;;;;;2258454;56;20961;-74
2022/05/14 01:51:20;;;;;;;3.42;0.90;;;14.90;49.50;;;;;;2265151;55;21892;-74
2022/05/14 01:53:47;;;;;;;2.75;0.60;;;14.90;49.60;;;;;;2259616;55;20976;-74
2022/05/14 01:56:13;;;;;;;1.95;0.75;;;14.90;49.70;;;;;;2258239;56;21043;-74
2022/05/14 01:58:39;;;;;;;1.42;0.50;;;14.90;49.70;;;;;;2309422;55;21763;-74
2022/05/14 02:01:23;;;;;;;1.65;0.77;;;14.80;49.70;;;;;;2258716;56;21071;-77
2022/05/14 02:03:55;;;;;;;4.28;0.60;;;14.80;50.20;;;;;;2260294;56;21024;-73
2022/05/14 02:06:23;;;;;;;1.62;0.60;;;14.80;49.90;;;;;;2258971;56;21864;-78
2022/05/14 02:08:50;;;;;;;1.92;0.70;;;14.80;49.80;;;;;;2258988;56;21020;-75
2022/05/14 02:11:16;;;;;;;1.90;0.60;;;14.70;49.80;;;;;;2245489;55;21133;-74
2022/05/14 02:13:43;;;;;;;2.20;0.82;;;14.70;49.90;;;;;;2246303;55;21035;-74
2022/05/14 02:16:09;;;;;;;2.12;0.88;;;14.60;50.00;;;;;;2258107;56;22019;-76
2022/05/14 02:18:36;;;;;;;1.30;0.60;;;14.60;50.00;;;;;;2301768;55;21027;-72
2022/05/14 02:21:03;;;;;;;2.05;0.70;;;14.60;50.10;;;;;;2259346;56;21076;-73
2022/05/14 02:23:29;;;;;;;2.30;0.60;;;14.50;50.20;;;;;;2258646;56;21034;-73
2022/05/14 02:25:55;;;;;;;1.40;0.50;;;14.50;50.20;;;;;;2259621;56;21000;-75
2022/05/14 02:28:22;;;;;;;2.30;0.65;;;14.50;50.20;;;;;;2259193;56;21047;-76
2022/05/14 02:30:48;;;;;;;2.62;0.85;;;14.50;50.30;;;;;;2249719;55;21450;-77
2022/05/14 02:33:14;;;;;;;3.40;0.62;;;14.50;50.30;;;;;;2405003;55;21335;-76
2022/05/14 02:35:41;;;;;;;2.53;0.75;;;14.50;50.30;;;;;;2328607;55;21814;-74
2022/05/14 02:38:07;;;;;;;2.05;0.70;;;14.50;50.30;;;;;;2256080;55;21087;-74
2022/05/14 02:40:34;;;;;;;2.45;0.70;;;14.50;50.40;;;;;;2251349;55;21059;-74
2022/05/14 02:43:00;;;;;;;2.33;0.75;;;14.40;50.30;;;;;;2303515;55;20958;-74
2022/05/14 02:45:30;;;;;;;3.00;1.02;;;14.40;50.40;;;;;;2262697;56;20928;-74
2022/05/14 02:47:56;;;;;;;2.50;0.73;;;14.40;50.40;;;;;;2244818;55;21580;-75
2022/05/14 02:50:22;;;;;;;1.45;0.60;;;14.40;50.40;;;;;;2257997;56;20935;-74
2022/05/14 02:52:48;;;;;;;1.80;0.50;;;14.30;50.40;;;;;;2259184;56;20967;-75
2022/05/14 02:55:15;;;;;;;1.17;0.50;;;14.30;50.40;;;;;;2258973;56;21309;-75
2022/05/14 02:57:41;;;;;;;1.48;0.50;;;14.30;50.50;;;;;;2261292;56;20971;-74
2022/05/14 03:00:10;;;;;;;3.83;0.80;;;14.20;50.50;;;;;;2242114;56;20975;-74
2022/05/14 03:02:36;;;;;;;3.35;0.70;;;14.20;50.50;;;;;;2259129;56;21891;-74
2022/05/14 03:05:03;;;;;;;1.65;0.60;;;14.20;50.50;;;;;;2257227;56;21809;-74
2022/05/14 03:07:31;;;;;;;2.22;0.60;;;14.20;50.60;;;;;;2245889;55;21098;-74
2022/05/14 03:09:57;;;;;;;1.50;0.62;;;14.20;50.60;;;;;;2259468;55;20963;-74
2022/05/14 03:12:24;;;;;;;2.55;0.75;;;14.10;50.60;;;;;;2260095;56;21027;-74
2022/05/14 03:14:50;;;;;;;2.47;0.80;;;14.10;50.60;;;;;;2477207;55;21023;-74
2022/05/14 03:17:17;;;;;;;3.12;0.70;;;14.10;50.70;;;;;;2258689;56;21028;-74
2022/05/14 03:19:43;;;;;;;1.35;0.57;;;14.00;50.70;;;;;;2259360;56;21408;-74
2022/05/14 03:22:09;;;;;;;1.62;0.68;;;14.00;50.70;;;;;;2258766;56;21303;-74
2022/05/14 03:24:36;;;;;;;1.98;0.60;;;14.00;50.80;;;;;;2306168;55;21761;-74
2022/05/14 03:27:05;;;;;;;1.70;0.80;;;13.90;50.80;;;;;;2250407;55;20939;-74
2022/05/14 03:29:32;;;;;;;1.40;0.60;;;14.00;51.00;;;;;;2321578;55;20993;-74
2022/05/14 03:31:59;;;;;;;2.37;0.60;;;14.00;51.10;;;;;;2317450;55;21005;-74
2022/05/14 03:34:26;;;;;;;2.20;0.50;;;13.90;51.00;;;;;;2259332;56;21134;-74
2022/05/14 03:36:52;;;;;;;2.40;0.80;;;13.90;51.10;;;;;;2310008;55;20947;-74
2022/05/14 03:39:18;;;;;;;2.65;0.73;;;13.90;51.20;;;;;;2277497;55;21503;-74
2022/05/14 03:41:45;;;;;;;1.10;0.52;;;13.90;51.20;;;;;;2405680;55;20939;-74
2022/05/14 03:44:11;;;;;;;1.90;0.75;;;13.90;51.20;;;;;;2353178;55;21684;-74
2022/05/14 03:46:38;;;;;;;2.53;0.80;;;13.90;51.20;;;;;;2258985;56;20952;-74
2022/05/14 03:49:04;;;;;;;2.05;0.80;;;13.90;51.20;;;;;;2259000;56;21024;-75
2022/05/14 03:51:30;;;;;;;2.42;0.85;;;13.80;51.20;;;;;;2251623;55;21003;-75
2022/05/14 03:54:00;;;;;;;0.93;0.52;;;13.80;51.20;;;;;;2252169;56;21508;-74
2022/05/14 03:56:26;;;;;;;2.40;0.70;;;13.80;51.20;;;;;;2249602;55;20991;-74
2022/05/14 03:58:53;;;;;;;1.98;0.80;;;13.80;51.10;;;;;;2259282;56;21011;-74
2022/05/14 04:01:20;;;;;;;2.17;0.77;;;13.80;51.20;;;;;;2244230;56;20975;-74
2022/05/14 04:03:46;;;;;;;3.65;0.77;;;13.80;51.30;;;;;;2259484;56;21757;-74
2022/05/14 04:06:12;;;;;;;2.25;0.95;;;13.70;51.20;;;;;;2249681;55;21047;-74
2022/05/14 04:08:39;;;;;;;1.70;0.80;;;13.70;51.30;;;;;;2253318;56;21043;-74
2022/05/14 04:11:05;;;;;;;2.33;0.93;;;13.70;51.30;;;;;;2259696;55;21082;-74
2022/05/14 04:13:34;;;;;;;2.37;0.88;;;13.70;51.40;;;;;;2247731;55;21571;-75
2022/05/14 04:16:03;;;;;;;2.62;0.70;;;13.70;51.40;;;;;;2258872;55;20974;-74
2022/05/14 04:18:29;;;;;;;1.58;0.80;;;13.60;51.40;;;;;;2257809;56;21473;-74
2022/05/14 04:21:01;;;;;;;1.48;0.70;;;13.60;51.50;;;;;;2259298;55;20972;-74
2022/05/14 04:23:29;;;;;;;3.15;0.70;;;13.60;51.60;;;;;;2424742;55;21308;-74
2022/05/14 04:25:55;;;;;;;1.62;0.68;;;13.60;51.70;;;;;;2467341;55;21498;-75
2022/05/14 04:28:22;;;;;;;2.15;0.90;;;13.60;51.70;;;;;;2249746;55;20991;-74
2022/05/14 04:30:48;;;;;;;2.67;0.90;;;13.60;51.80;;;;;;2333744;55;21003;-74
2022/05/14 04:33:15;;;;;;;2.35;1.10;;;13.50;51.80;;;;;;2259926;55;21718;-74
2022/05/14 04:35:42;;;;;;;2.17;0.80;;;13.60;52.00;;;;;;2252870;55;21035;-74
2022/05/14 04:38:08;;;;;;;1.70;0.70;;;13.70;52.10;;;;;;2241860;55;21076;-75
2022/05/14 04:40:34;;;;;;;1.77;0.80;;;13.60;52.10;;;;;;2240128;55;21003;-74
2022/05/14 04:43:04;;;;;;;1.65;0.60;;;13.60;52.10;;;;;;2255692;55;20950;-75
2022/05/14 04:45:31;;;;;;;2.45;0.80;;;13.60;52.20;;;;;;2258807;56;21085;-74
2022/05/14 04:47:57;;;;;;;1.75;0.75;;;13.60;52.20;;;;;;2256583;55;20975;-74
2022/05/14 04:50:23;;;;;;;1.90;0.90;;;13.60;52.20;;;;;;2270219;56;21455;-75
2022/05/14 04:52:50;;;;;;;2.72;0.80;;;13.70;52.30;;;;;;2258972;56;20928;-74
2022/05/14 04:55:16;;;;;;;2.37;0.80;;;13.70;52.40;;;;;;2258677;56;21027;-74
2022/05/14 04:57:43;;;;;;;3.12;0.98;;;13.70;52.40;;;;;;2262557;55;21030;-74
2022/05/14 05:00:13;;;;;;;2.05;0.70;;;13.70;52.40;;;;;;2466657;55;21039;-74
2022/05/14 05:05:25;;;;;;;2.20;0.80;;;13.70;52.50;;;;;;2262276;55;20968;-74
2022/05/14 05:07:51;;;;;;;3.10;0.80;;;13.80;52.60;;;;;;2258839;56;21441;-74
2022/05/14 05:10:18;;;;;;;2.72;1.00;;;13.80;52.70;;;;;;2280680;55;20960;-74
2022/05/14 05:12:44;;;;;;;2.30;0.90;;;13.80;52.70;;;;;;2321628;55;21456;-74
2022/05/14 05:15:11;;;;;;;1.67;0.70;;;13.90;52.80;;;;;;2258601;56;20967;-74
2022/05/14 05:17:37;;;;;;;2.72;0.70;;;13.90;52.80;;;;;;2245077;56;20919;-74
2022/05/14 05:20:04;;;;;;;1.37;0.55;;;13.90;52.90;;;;;;2258855;56;20928;-75
2022/05/14 05:22:31;;;;;;;0.75;0.50;;;14.00;53.00;;;;;;2258732;56;20955;-75
2022/05/14 05:24:57;;;;;;;1.90;0.70;;;14.00;53.00;;;;;;2269823;55;20971;-74
2022/05/14 05:27:25;;;;;;;1.80;0.70;;;14.10;53.00;;;;;;2244721;56;20955;-74
2022/05/14 05:29:53;;;;;;;2.03;0.70;;;14.10;53.00;;;;;;2258844;56;20968;-75
2022/05/14 05:32:19;;;;;;;1.73;0.60;;;14.20;53.20;;;;;;2367120;55;20963;-75
2022/05/14 05:34:46;;;;;;;1.62;0.62;;;14.20;53.20;;;;;;2264779;55;20975;-77
2022/05/14 05:37:12;;;;;;;1.52;0.52;;;14.30;53.40;;;;;;2259163;56;20999;-79
2022/05/14 05:39:39;;;;;;;1.80;0.65;;;14.30;53.40;;;;;;2379733;55;21483;-74
2022/05/14 05:42:05;;;;;;;2.92;0.80;;;14.40;53.50;;;;;;2413908;55;20975;-74
2022/05/14 05:44:32;;;;;;;1.80;0.75;;;14.50;53.60;;;;;;2268610;55;21032;-74
2022/05/14 05:47:03;;;;;;;5.22;1.40;;;14.60;53.70;;;;;;2245616;56;21019;-75
2022/05/14 05:49:30;;;;;;;4.07;0.90;;;14.70;53.80;;;;;;2244364;56;21059;-76
2022/05/14 05:51:56;;;;;;;3.53;1.00;;;14.70;53.70;;;;;;2486923;55;21499;-73
2022/05/14 05:57:08;;;;;;;2.12;0.80;;;14.90;53.80;;;;;;2441891;55;21093;-74
2022/05/14 05:59:34;;;;;;;1.52;0.60;;;15.00;53.90;;;;;;2246322;55;20951;-74
2022/05/14 06:02:01;;;;;;;1.90;0.73;;;15.10;54.00;;;;;;2259288;56;20995;-74
2022/05/14 06:04:27;;;;;;;1.30;0.50;;;15.20;54.00;;;;;;2388322;55;21909;-76
2022/05/14 06:06:56;;;;;;;1.60;0.70;;;15.20;54.00;;;;;;2244815;56;20971;-74
2022/05/14 06:09:24;;;;;;;1.75;0.70;;;15.40;54.20;;;;;;2259327;56;21088;-74
2022/05/14 06:11:51;;;;;;;2.17;0.68;;;15.40;54.20;;;;;;2259004;56;20972;-74
2022/05/14 06:14:17;;;;;;;2.00;0.70;;;15.60;54.50;;;;;;2370959;55;21020;-74
2022/05/14 06:16:44;;;;;;;1.98;0.70;;;15.60;54.40;;;;;;2403181;55;21108;-76
2022/05/14 06:19:11;;;;;;;1.90;0.65;;;15.70;54.50;;;;;;2243842;55;21706;-74
2022/05/14 06:21:38;;;;;;;1.98;0.62;;;15.80;54.50;;;;;;2258674;56;20928;-74
2022/05/14 06:24:06;;;;;;;2.20;0.70;;;15.90;54.50;;;;;;2390082;55;21424;-74
2022/05/14 06:26:33;;;;;;;3.03;0.70;;;16.00;54.60;;;;;;2248953;55;21023;-74
2022/05/14 06:28:59;;;;;;;1.92;0.70;;;16.10;54.60;;;;;;2255227;55;20971;-73
2022/05/14 06:31:26;;;;;;;4.50;0.60;;;16.30;54.70;;;;;;2247068;55;20955;-74
2022/05/14 06:33:52;;;;;;;1.67;0.70;;;16.40;54.70;;;;;;2257478;56;21397;-74
2022/05/14 06:36:19;;;;;;;2.67;1.00;;;16.50;54.70;;;;;;2247098;56;21382;-73
2022/05/14 06:38:46;;;;;;;1.60;0.70;;;16.60;54.70;;;;;;2484786;55;21007;-74
2022/05/14 06:41:13;;;;;;;5.03;0.80;;;16.80;54.80;;;;;;2259018;56;20967;-79
2022/05/14 06:43:40;;;;;;;2.42;0.70;;;16.90;54.90;;;;;;2249591;55;21915;-78
2022/05/14 06:46:08;;;;;;;2.60;0.82;;;17.00;54.90;;;;;;2261690;55;21274;-77
2022/05/14 06:48:34;;;;;;;1.77;0.90;;;17.10;54.80;;;;;;2245106;56;20967;-76
2022/05/14 06:51:04;;;;;;;1.50;0.70;;;17.30;55.00;;;;;;2338283;55;20983;-79
2022/05/14 06:53:31;;;;;;;2.60;0.80;;;17.40;55.00;;;;;;2258420;56;21439;-73
2022/05/14 06:55:58;;;;;;;2.70;0.90;;;17.50;54.90;;;;;;2487706;55;20987;-74
2022/05/14 06:58:26;;;;;;;1.92;0.70;;;17.70;54.90;;;;;;2259276;56;21779;-76
2022/05/14 07:00:53;;;;;;;1.80;0.90;;;17.80;54.80;;;;;;2259444;56;20975;-78
2022/05/14 07:08:48;;;;;;;2.37;1.02;;;18.30;54.90;;;;;;2257683;56;21096;-74
2022/05/14 07:11:15;;;;;;;2.95;1.10;;;18.60;55.40;;;;;;2259383;55;21015;-73
2022/05/14 07:13:42;;;;;;;3.50;1.20;;;18.90;55.60;;;;;;2259715;56;21083;-70
2022/05/14 07:16:10;;;;;;;2.22;0.90;;;19.20;55.90;;;;;;2466749;55;21027;-74
2022/05/14 07:18:37;;;;;;;2.17;0.90;;;19.50;56.00;;;;;;2258868;56;20975;-73
2022/05/14 07:21:12;;;;;;;2.62;0.80;;;19.90;56.00;;;;;;2416060;55;21047;-75
2022/05/14 07:23:38;;;;;;;2.25;0.80;;;20.20;56.30;;;;;;2259942;56;21035;-74
2022/05/14 07:26:05;;;;;;;3.28;0.90;;;20.70;56.40;;;;;;2312089;55;20928;-74
2022/05/14 07:28:33;;;;;;;1.77;0.82;;;21.10;56.50;;;;;;2259456;56;20968;-74
2022/05/14 07:31:01;;;;;;;3.37;1.00;;;21.60;56.10;;;;;;2487170;55;21004;-75
2022/05/14 07:33:27;;;;;;;3.20;1.00;;;22.00;55.60;;;;;;2310942;55;21015;-73
2022/05/14 07:35:54;;;;;;;2.12;0.98;;;22.40;55.10;;;;;;2259136;56;21420;-73
2022/05/14 07:38:21;;;;;;;3.22;1.00;;;22.60;54.20;;;;;;2259081;56;21515;-76
2022/05/14 07:40:47;;;;;;;2.67;1.00;;;22.80;53.50;;;;;;2295610;55;20972;-73
2022/05/14 07:43:16;;;;;;;1.77;0.60;;;23.00;52.80;;;;;;2261748;55;20979;-73
2022/05/14 07:45:45;;;;;;;2.80;0.62;;;23.10;52.60;;;;;;2245883;56;21044;-75
2022/05/14 07:48:35;;;;;;;4.25;0.80;;;23.30;52.10;;;;;;2309471;55;20971;-78
2022/05/14 07:51:03;;;;;;;1.70;0.50;;;23.40;51.20;;;;;;2248742;55;21019;-78
2022/05/14 07:53:32;;;;;;;2.30;0.70;;;23.60;51.00;;;;;;2372997;55;20958;-77
2022/05/14 07:55:59;;;;;;;2.10;0.60;;;23.60;50.30;;;;;;2248972;55;21103;-75
2022/05/14 07:58:26;;;;;;;2.03;0.77;;;23.70;49.90;;;;;;2427561;55;20984;-76
2022/05/14 08:00:52;;;;;;;3.62;0.80;;;23.70;49.50;;;;;;2330377;55;21003;-72
2022/05/14 08:03:23;;;;;;;1.55;0.68;;;23.70;49.20;;;;;;2247559;55;21734;-75
2022/05/14 08:05:55;;;;;;;1.45;0.55;;;23.60;48.70;;;;;;2257573;56;21635;-72
2022/05/14 08:08:21;;;;;;;1.37;0.50;;;23.60;48.60;;;;;;2399775;55;21096;-73
2022/05/14 08:10:49;;;;;;;2.95;0.60;;;23.60;48.50;;;;;;2260037;55;20955;-73
2022/05/14 08:13:17;;;;;;;0.60;0.30;;;23.50;48.10;;;;;;2243945;56;20947;-75
2022/05/14 08:15:44;;;;;;;1.98;0.70;;;23.50;48.00;;;;;;2273232;55;21008;-74
2022/05/14 08:18:11;;;;;;;2.03;0.50;;;23.50;47.90;;;;;;2258789;56;21724;-72
2022/05/14 08:20:39;;;;;;;2.55;0.57;;;23.50;47.80;;;;;;2286279;55;21023;-74
2022/05/14 08:25:51;;;;;;;1.87;0.50;;;23.50;47.50;;;;;;2258903;56;21046;-72
2022/05/14 08:28:17;;;;;;;1.83;0.70;;;23.50;47.70;;;;;;2249865;55;20971;-70
2022/05/14 08:30:44;;;;;;;2.05;0.80;;;23.50;47.70;;;;;;2252057;56;21447;-75
2022/05/14 08:33:11;;;;;;;2.12;0.55;;;23.50;47.30;;;;;;2258723;56;20966;-75
2022/05/14 08:35:38;;;;;;;2.70;0.62;;;23.50;46.90;;;;;;2258470;56;20983;-76
2022/05/14 08:38:05;;;;;;;4.45;1.02;;;23.50;46.60;;;;;;2248872;56;21023;-74
2022/05/14 08:40:33;;;;;;;1.80;0.57;;;23.50;46.30;;;;;;2254957;55;20948;-72
2022/05/14 08:43:01;;;;;;;1.20;0.62;;;23.50;46.40;;;;;;2258596;56;21110;-74
2022/05/14 08:45:28;;;;;;;3.92;1.08;;;23.50;46.70;;;;;;2245500;56;20972;-74
2022/05/14 08:48:00;;;;;;;2.03;0.80;;;23.60;46.60;;;;;;2259002;56;21522;-73
2022/05/14 08:50:31;;;;;;;2.00;0.62;;;23.60;46.10;;;;;;2258527;56;21031;-72
2022/05/14 08:53:00;;;;;;;1.55;0.60;;;23.70;46.10;;;;;;2258537;56;20975;-73
2022/05/14 08:58:49;;;;;;;2.45;0.75;;;23.70;45.90;;;;;;2258824;56;20960;-75
2022/05/14 09:01:18;;;;;;;1.70;0.50;;;23.80;45.80;;;;;;2258702;56;21043;-71
2022/05/14 09:03:45;;;;;;;2.62;0.70;;;23.80;45.70;;;;;;2258881;56;20963;-74
2022/05/14 09:06:14;;;;;;;1.75;0.60;;;23.80;45.70;;;;;;2258809;56;20988;-75
2022/05/14 09:08:40;;;;;;;3.10;0.88;;;23.90;45.80;;;;;;2270027;55;21023;-73
2022/05/14 09:11:27;;;;;;;2.60;0.90;;;23.90;45.90;;;;;;2258206;56;20979;-73
2022/05/14 09:13:58;;;;;;;2.00;0.68;;;24.00;45.80;;;;;;2455283;55;20988;-73
2022/05/14 09:16:32;;;;;;;3.60;0.70;;;24.10;46.00;;;;;;2297734;55;20948;-74
2022/05/14 09:18:59;;;;;;;2.00;0.70;;;24.10;45.50;;;;;;2258472;55;20972;-74
2022/05/14 09:21:30;;;;;;;3.45;1.10;;;24.20;45.90;;;;;;2249290;55;20964;-74
2022/05/14 09:24:01;;;;;;;1.67;0.60;;;24.30;46.10;;;;;;2262083;55;20963;-75
2022/05/14 09:26:33;;;;;;;1.17;0.50;;;24.30;45.30;;;;;;2259086;56;20955;-72
2022/05/14 09:30:11;;;;;;;1.40;0.50;;;24.40;45.40;;;;;;2369421;55;20979;-74
2022/05/14 09:32:43;;;;;;;3.08;0.55;;;24.50;44.80;;;;;;2360802;55;22062;-72
2022/05/14 09:35:22;;;;;;;1.37;0.45;;;24.60;44.80;;;;;;2283212;55;21036;-73
2022/05/14 09:37:49;;;;;;;2.45;0.88;;;24.60;44.00;;;;;;2259073;56;20964;-72
2022/05/14 09:40:26;;;;;;;1.85;0.70;;;24.60;44.50;;;;;;2258900;56;20947;-73
2022/05/14 09:43:39;;;;;;;1.90;0.60;;;24.60;43.80;;;;;;2487130;55;20999;-74
2022/05/14 09:46:10;;;;;;;;;;;24.70;44.10;;;;;;2262317;56;21036;-73
2022/05/14 09:48:47;;;;;;;3.08;0.55;;;24.70;44.30;;;;;;2249874;55;20119;-75
2022/05/14 09:51:25;;;;;;;1.70;0.43;;;24.80;44.20;;;;;;2428449;55;20975;-73
2022/05/14 09:53:52;;;;;;;2.33;0.55;;;24.80;44.20;;;;;;2259455;55;21539;-73
2022/05/14 09:57:44;;;;;;;4.68;0.93;;;24.90;44.10;;;;;;2332240;55;21011;-72
2022/05/14 10:00:29;;;;;;;2.65;0.60;;;24.90;43.60;;;;;;2262236;55;21043;-75
2022/05/14 10:04:30;;;;;;;1.98;0.70;;;25.00;43.50;;;;;;2327372;55;21059;-73
2022/05/14 10:07:16;;;;;;;2.25;0.43;;;25.00;43.00;;;;;;2258785;56;20995;-73
2022/05/14 10:11:36;;;;;;;2.50;0.77;;;25.10;42.50;;;;;;2262850;56;20960;-72
2022/05/14 10:17:49;;;;;;;1.80;0.50;;;25.10;43.00;;;;;;2258279;56;20963;-71
2022/05/14 10:29:41;;;;;;;1.45;0.40;;;25.20;43.20;;;;;;2261663;55;21011;-73
2022/05/14 10:32:18;;;;;;;3.97;0.95;;;25.30;43.00;;;;;;2259384;55;20946;-73
2022/05/14 10:36:33;;;;;;;7.45;1.58;;;25.50;42.80;;;;;;2315806;56;21156;-73
2022/05/14 10:39:09;;;;;;;4.50;0.70;;;25.50;43.00;;;;;;2304080;55;20968;-75
2022/05/14 10:41:44;;;;;;;1.15;0.50;;;25.60;42.80;;;;;;2314704;55;21051;-73
2022/05/14 10:44:13;;;;;;;1.60;0.55;;;25.60;42.50;;;;;;2319551;55;20976;-73
2022/05/14 10:46:40;;;;;;;3.60;0.70;;;25.70;42.70;;;;;;2326608;55;21090;-72
2022/05/14 10:49:54;;;;;;;4.10;0.60;;;25.70;42.40;;;;;;2252831;55;20975;-76
2022/05/14 10:52:20;;;;;;;1.50;0.45;;;25.80;42.40;;;;;;2363497;55;21004;-74
2022/05/14 10:54:47;;;;;;;1.62;0.50;;;25.90;42.70;;;;;;2259106;56;21079;-74
2022/05/14 10:57:40;;;;;;;1.17;0.45;;;25.90;42.10;;;;;;2258494;56;21440;-74
2022/05/14 11:00:40;;;;;;;2.47;0.60;;;26.00;41.70;;;;;;2258805;56;21377;-73
2022/05/14 11:03:21;;;;;;;1.60;0.50;;;26.10;41.90;;;;;;2315038;55;20991;-74
2022/05/14 11:06:05;;;;;;;2.00;0.60;;;26.20;41.80;;;;;;2256804;55;21070;-73
2022/05/14 11:08:49;;;;;;;;;;;26.30;41.80;;;;;;2247787;56;21937;-74
2022/05/14 11:11:21;;;;;;;1.80;0.50;;;26.30;41.70;;;;;;2261484;55;20185;-74
2022/05/14 11:14:22;;;;;;;2.30;0.60;;;26.40;41.80;;;;;;2243189;56;20936;-73
2022/05/14 11:16:51;;;;;;;2.40;0.60;;;26.50;41.50;;;;;;2260975;55;21012;-74
2022/05/14 11:19:31;;;;;;;2.25;0.62;;;26.50;41.40;;;;;;2243215;55;21552;-75
2022/05/14 11:22:00;;;;;;;1.98;0.60;;;26.50;40.90;;;;;;2256850;56;20991;-76
2022/05/14 11:24:39;;;;;;;0.95;0.50;;;26.50;41.20;;;;;;2255884;56;20951;-74
2022/05/14 11:27:05;;;;;;;2.92;0.68;;;26.60;40.90;;;;;;2258576;56;21570;-73
2022/05/14 11:29:57;;;;;;;5.47;0.70;;;26.60;41.10;;;;;;2253850;55;20987;-75
2022/05/14 11:32:24;;;;;;;2.85;0.93;;;26.70;40.50;;;;;;2243427;55;21528;-73
2022/05/14 11:34:56;;;;;;;2.05;0.57;;;26.70;40.50;;;;;;2257821;55;20997;-73
2022/05/14 11:37:36;;;;;;;3.55;0.75;;;26.70;40.10;;;;;;2255129;55;21534;-73
2022/05/14 11:40:08;;;;;;;2.25;0.70;;;26.70;40.20;;;;;;2257206;55;21774;-74
2022/05/14 11:42:35;;;;;;;2.97;0.80;;;26.70;40.40;;;;;;2259424;56;20936;-73
2022/05/14 11:45:24;;;;;;;2.30;0.77;;;26.80;40.20;;;;;;2258368;56;20956;-72
2022/05/14 11:47:57;;;;;;;2.15;0.70;;;26.80;40.10;;;;;;2246509;55;21400;-74
2022/05/14 11:51:11;;;;;;;2.55;0.73;;;26.80;40.10;;;;;;2309850;55;20951;-73
2022/05/14 11:55:09;;;;;;;2.05;0.90;;;26.80;40.30;;;;;;2259227;56;21879;-74
2022/05/14 11:57:40;;;;;;;1.77;0.70;;;26.90;40.50;;;;;;2433002;55;21002;-72
2022/05/14 12:01:09;;;;;;;1.55;0.60;;;27.00;40.80;;;;;;2258505;56;20983;-72
2022/05/14 12:03:40;;;;;;;1.92;0.65;;;27.10;40.30;;;;;;2256980;55;21050;-75
2022/05/14 12:09:36;;;;;;;5.68;0.80;;;27.10;40.60;;;;;;2253305;56;20931;-71
2022/05/14 12:12:15;;;;;;;2.08;0.70;;;27.30;39.90;;;;;;2296107;55;20971;-72
2022/05/14 12:14:42;;;;;;;2.90;0.93;;;27.40;40.00;;;;;;2371473;55;21352;-74
2022/05/14 12:17:14;;;;;;;2.58;0.88;;;27.40;40.00;;;;;;2384244;55;21096;-73
2022/05/14 12:19:40;;;;;;;2.72;0.77;;;27.40;39.80;;;;;;2225016;55;1412391;-76
2022/05/14 12:22:19;;;;;;;3.65;0.80;;;27.50;39.90;;;;;;2393032;55;21023;-74
2022/05/14 12:25:07;;;;;;;2.40;0.77;;;27.50;39.40;;;;;;2258783;56;21810;-73
2022/05/14 12:27:34;;;;;;;2.60;0.90;;;27.60;39.30;;;;;;2258900;56;21012;-74
2022/05/14 12:30:05;;;;;;;4.07;1.10;;;27.60;39.40;;;;;;2477881;55;21068;-73
2022/05/14 12:36:23;;;;;;;1.92;0.52;;;27.70;39.00;;;;;;2281562;55;21500;-73
2022/05/14 12:38:49;;;;;;;3.28;0.90;;;27.80;39.30;;;;;;2258711;56;21019;-72
2022/05/14 12:41:30;;;;;;;2.22;0.90;;;27.80;38.90;;;;;;2294190;55;21056;-73
2022/05/14 12:44:05;;;;;;;3.00;0.80;;;27.80;38.70;;;;;;2253773;56;21012;-75
2022/05/14 12:46:31;;;;;;;6.60;1.20;;;27.80;38.30;;;;;;2258354;56;21047;-72
2022/05/14 12:48:58;;;;;;;3.40;0.90;;;27.80;38.30;;;;;;2258343;56;20964;-73
2022/05/14 12:51:26;;;;;;;2.30;0.85;;;27.80;38.30;;;;;;2255737;56;21138;-72
2022/05/14 12:53:53;;;;;;;2.53;0.80;;;27.90;38.30;;;;;;2247797;55;21027;-73
2022/05/14 12:56:20;;;;;;;4.45;1.10;;;27.90;38.20;;;;;;2258724;56;20955;-73
2022/05/14 12:58:47;;;;;;;2.45;0.80;;;27.90;37.90;;;;;;2259187;56;20984;-73
2022/05/14 13:01:13;;;;;;;2.22;0.70;;;27.90;37.90;;;;;;2258942;56;21111;-74
2022/05/14 13:04:01;;;;;;;2.20;0.90;;;28.00;37.60;;;;;;2430912;55;20963;-72
2022/05/14 13:06:34;;;;;;;3.47;0.82;;;28.00;36.70;;;;;;2258998;56;20995;-73
2022/05/14 13:09:05;;;;;;;1.60;0.60;;;28.00;37.30;;;;;;2273104;55;21091;-74
2022/05/14 13:11:32;;;;;;;;;;;28.00;37.30;;;;;;2261950;56;21056;-75
2022/05/14 13:14:09;;;;;;;3.85;0.50;;;28.10;37.50;;;;;;2258518;56;20082;-73
2022/05/14 13:16:35;;;;;;;1.95;0.57;;;28.10;36.90;;;;;;2486757;55;20952;-74
2022/05/14 13:19:49;;;;;;;1.62;0.62;;;28.10;36.50;;;;;;2247769;55;21064;-75
2022/05/14 13:22:36;;;;;;;1.80;0.52;;;28.10;36.20;;;;;;2259633;56;21534;-74
2022/05/14 13:25:24;;;;;;;1.92;0.65;;;28.10;35.50;;;;;;2486291;55;20988;-77
2022/05/14 13:27:50;;;;;;;1.15;0.45;;;28.20;35.80;;;;;;2440963;55;21083;-76
2022/05/14 13:30:21;;;;;;;1.73;0.50;;;28.20;35.90;;;;;;2294756;55;21043;-75
2022/05/14 13:32:48;;;;;;;2.10;0.65;;;28.20;35.80;;;;;;2281820;56;20987;-76
2022/05/14 13:38:07;;;;;;;1.33;0.50;;;28.30;35.50;;;;;;2258963;56;21031;-75
2022/05/14 13:40:38;;;;;;;2.72;0.80;;;28.30;35.80;;;;;;2464021;55;21086;-73
2022/05/14 13:43:20;;;;;;;1.75;0.60;;;28.40;35.30;;;;;;2358178;55;21003;-75
2022/05/14 13:45:57;;;;;;;1.58;0.57;;;28.50;34.70;;;;;;2228502;56;21059;-74
2022/05/14 13:48:38;;;;;;;1.90;0.60;;;28.50;35.20;;;;;;2255576;55;20959;-75
2022/05/14 13:51:43;;;;;;;1.52;0.43;;;28.60;34.60;;;;;;2250506;56;20988;-75
2022/05/14 13:54:15;;;;;;;1.80;0.55;;;28.70;34.60;;;;;;2486559;55;20979;-75
2022/05/14 13:56:42;;;;;;;23.92;0.98;;;28.80;35.00;;;;;;2255063;55;21737;-75